sensor_id;sensor_type;location;lat;lon;timestamp;temperature;humidity
41427;DHT22;27171;51.812;19.514;2022-09-24T00:02:45;6.70;99.90
41427;DHT22;27171;51.812;19.514;2022-09-24T00:05:47;6.80;99.90
41427;DHT22;27171;51.812;19.514;2022-09-24T00:08:50;6.70;99.90
41427;DHT22;27171;51.812;19.514;2022-09-24T00:11:51;6.80;99.90
41427;DHT22;27171;51.812;19.514;2022-09-24T00:14:52;6.80;99.90
41427;DHT22;27171;51.812;19.514;2022-09-24T00:17:54;6.90;99.90
41427;DHT22;27171;51.812;19.514;2022-09-24T00:20:55;6.90;99.90
41427;DHT22;27171;51.812;19.514;2022-09-24T00:23:59;6.90;99.90
41427;DHT22;27171;51.812;19.514;2022-09-24T00:27:00;7.00;99.90
41427;DHT22;27171;51.812;19.514;2022-09-24T00:30:02;7.00;99.90
41427;DHT22;27171;51.812;19.514;2022-09-24T00:33:03;7.10;99.90
41427;DHT22;27171;51.812;19.514;2022-09-24T00:36:05;7.10;99.90
41427;DHT22;27171;51.812;19.514;2022-09-24T00:39:06;7.20;99.90
41427;DHT22;27171;51.812;19.514;2022-09-24T00:42:08;7.20;99.90
41427;DHT22;27171;51.812;19.514;2022-09-24T00:45:09;7.30;99.90
41427;DHT22;27171;51.812;19.514;2022-09-24T00:48:11;7.30;99.90
41427;DHT22;27171;51.812;19.514;2022-09-24T00:51:16;7.40;99.90
41427;DHT22;27171;51.812;19.514;2022-09-24T00:54:21;7.40;99.90
41427;DHT22;27171;51.812;19.514;2022-09-24T00:57:23;7.40;99.90
41427;DHT22;27171;51.812;19.514;2022-09-24T01:00:25;7.50;99.90
41427;DHT22;27171;51.812;19.514;2022-09-24T01:03:26;7.50;99.90
41427;DHT22;27171;51.812;19.514;2022-09-24T01:06:28;7.50;99.90
41427;DHT22;27171;51.812;19.514;2022-09-24T01:09:29;7.60;99.90
41427;DHT22;27171;51.812;19.514;2022-09-24T01:15:47;7.60;99.90
41427;DHT22;27171;51.812;19.514;2022-09-24T01:18:59;7.60;99.90
41427;DHT22;27171;51.812;19.514;2022-09-24T01:25:34;7.70;99.90
41427;DHT22;27171;51.812;19.514;2022-09-24T01:29:01;7.70;99.90
41427;DHT22;27171;51.812;19.514;2022-09-24T01:38:41;7.80;99.90
41427;DHT22;27171;51.812;19.514;2022-09-24T01:41:44;7.80;99.90
41427;DHT22;27171;51.812;19.514;2022-09-24T01:44:46;7.80;99.90
41427;DHT22;27171;51.812;19.514;2022-09-24T01:47:47;7.80;99.90
41427;DHT22;27171;51.812;19.514;2022-09-24T01:51:17;7.80;99.90
41427;DHT22;27171;51.812;19.514;2022-09-24T01:54:25;7.80;99.90
41427;DHT22;27171;51.812;19.514;2022-09-24T01:57:59;7.90;99.90
41427;DHT22;27171;51.812;19.514;2022-09-24T02:01:09;7.90;99.90
41427;DHT22;27171;51.812;19.514;2022-09-24T02:04:15;7.90;99.90
41427;DHT22;27171;51.812;19.514;2022-09-24T02:07:37;7.90;99.90
41427;DHT22;27171;51.812;19.514;2022-09-24T02:10:57;7.90;99.90
41427;DHT22;27171;51.812;19.514;2022-09-24T02:14:13;7.90;99.90
41427;DHT22;27171;51.812;19.514;2022-09-24T02:17:15;7.90;99.90
41427;DHT22;27171;51.812;19.514;2022-09-24T02:20:20;8.00;99.90
41427;DHT22;27171;51.812;19.514;2022-09-24T02:23:22;8.00;99.90
41427;DHT22;27171;51.812;19.514;2022-09-24T02:26:24;8.00;99.90
41427;DHT22;27171;51.812;19.514;2022-09-24T02:29:25;8.00;99.90
41427;DHT22;27171;51.812;19.514;2022-09-24T02:32:31;8.00;99.90
41427;DHT22;27171;51.812;19.514;2022-09-24T02:35:33;8.00;99.90
41427;DHT22;27171;51.812;19.514;2022-09-24T02:38:34;8.00;99.90
41427;DHT22;27171;51.812;19.514;2022-09-24T02:41:35;8.10;99.90
41427;DHT22;27171;51.812;19.514;2022-09-24T02:44:36;8.10;99.90
41427;DHT22;27171;51.812;19.514;2022-09-24T02:47:37;8.10;99.90
41427;DHT22;27171;51.812;19.514;2022-09-24T02:50:39;8.10;99.90
41427;DHT22;27171;51.812;19.514;2022-09-24T02:53:40;8.10;99.90
41427;DHT22;27171;51.812;19.514;2022-09-24T02:56:42;8.10;99.90
41427;DHT22;27171;51.812;19.514;2022-09-24T02:59:43;8.20;99.90
41427;DHT22;27171;51.812;19.514;2022-09-24T03:02:44;8.10;99.90
41427;DHT22;27171;51.812;19.514;2022-09-24T03:05:45;8.10;99.90
41427;DHT22;27171;51.812;19.514;2022-09-24T03:08:46;8.10;99.90
41427;DHT22;27171;51.812;19.514;2022-09-24T03:11:47;8.20;99.90
41427;DHT22;27171;51.812;19.514;2022-09-24T03:14:48;8.20;99.90
41427;DHT22;27171;51.812;19.514;2022-09-24T03:17:49;8.20;99.90
41427;DHT22;27171;51.812;19.514;2022-09-24T03:20:58;8.10;99.90
41427;DHT22;27171;51.812;19.514;2022-09-24T03:24:00;8.10;99.90
41427;DHT22;27171;51.812;19.514;2022-09-24T03:27:02;8.10;99.90
41427;DHT22;27171;51.812;19.514;2022-09-24T03:30:03;8.20;99.90
41427;DHT22;27171;51.812;19.514;2022-09-24T03:33:08;8.20;99.90
41427;DHT22;27171;51.812;19.514;2022-09-24T03:36:13;8.20;99.90
41427;DHT22;27171;51.812;19.514;2022-09-24T03:39:14;8.20;99.90
41427;DHT22;27171;51.812;19.514;2022-09-24T03:42:15;8.30;99.90
41427;DHT22;27171;51.812;19.514;2022-09-24T03:45:16;8.30;99.90
41427;DHT22;27171;51.812;19.514;2022-09-24T03:48:19;8.30;99.90
41427;DHT22;27171;51.812;19.514;2022-09-24T03:51:20;8.30;99.90
41427;DHT22;27171;51.812;19.514;2022-09-24T03:54:21;8.30;99.90
41427;DHT22;27171;51.812;19.514;2022-09-24T03:57:22;8.30;99.90
41427;DHT22;27171;51.812;19.514;2022-09-24T04:00:23;8.30;99.90
41427;DHT22;27171;51.812;19.514;2022-09-24T04:03:25;8.30;99.90
41427;DHT22;27171;51.812;19.514;2022-09-24T04:06:25;8.30;99.90
41427;DHT22;27171;51.812;19.514;2022-09-24T04:09:26;8.40;99.90
41427;DHT22;27171;51.812;19.514;2022-09-24T04:12:27;8.30;99.90
41427;DHT22;27171;51.812;19.514;2022-09-24T04:15:29;8.30;99.90
41427;DHT22;27171;51.812;19.514;2022-09-24T04:18:30;8.30;99.90
41427;DHT22;27171;51.812;19.514;2022-09-24T04:21:31;8.30;99.90
41427;DHT22;27171;51.812;19.514;2022-09-24T04:24:32;8.30;99.90
41427;DHT22;27171;51.812;19.514;2022-09-24T04:27:33;8.40;99.90
41427;DHT22;27171;51.812;19.514;2022-09-24T04:30:35;8.40;99.90
41427;DHT22;27171;51.812;19.514;2022-09-24T04:33:36;8.40;99.90
41427;DHT22;27171;51.812;19.514;2022-09-24T04:36:37;8.40;99.90
41427;DHT22;27171;51.812;19.514;2022-09-24T04:39:38;8.50;99.90
41427;DHT22;27171;51.812;19.514;2022-09-24T04:42:40;8.50;99.90
41427;DHT22;27171;51.812;19.514;2022-09-24T04:45:41;8.50;99.90
41427;DHT22;27171;51.812;19.514;2022-09-24T04:48:42;8.50;99.90
41427;DHT22;27171;51.812;19.514;2022-09-24T04:51:43;8.60;99.90
41427;DHT22;27171;51.812;19.514;2022-09-24T04:54:44;8.60;99.90
41427;DHT22;27171;51.812;19.514;2022-09-24T04:57:46;8.60;99.90
41427;DHT22;27171;51.812;19.514;2022-09-24T05:00:47;8.70;99.90
41427;DHT22;27171;51.812;19.514;2022-09-24T05:03:48;8.70;99.90
41427;DHT22;27171;51.812;19.514;2022-09-24T05:06:49;8.70;99.90
41427;DHT22;27171;51.812;19.514;2022-09-24T05:09:50;8.70;99.90
41427;DHT22;27171;51.812;19.514;2022-09-24T05:12:51;8.80;99.90
41427;DHT22;27171;51.812;19.514;2022-09-24T05:15:53;8.80;99.90
41427;DHT22;27171;51.812;19.514;2022-09-24T05:18:54;8.80;99.90
41427;DHT22;27171;51.812;19.514;2022-09-24T05:21:55;8.90;99.90
41427;DHT22;27171;51.812;19.514;2022-09-24T05:24:56;8.90;99.90
41427;DHT22;27171;51.812;19.514;2022-09-24T05:27:57;8.90;99.90
41427;DHT22;27171;51.812;19.514;2022-09-24T05:30:58;9.00;99.90
41427;DHT22;27171;51.812;19.514;2022-09-24T05:33:59;9.00;99.90
41427;DHT22;27171;51.812;19.514;2022-09-24T05:37:01;9.00;99.90
41427;DHT22;27171;51.812;19.514;2022-09-24T05:40:04;9.00;99.90
41427;DHT22;27171;51.812;19.514;2022-09-24T05:43:05;9.10;99.90
41427;DHT22;27171;51.812;19.514;2022-09-24T05:46:07;9.10;99.90
41427;DHT22;27171;51.812;19.514;2022-09-24T05:49:08;9.20;99.90
41427;DHT22;27171;51.812;19.514;2022-09-24T05:52:08;9.20;99.90
41427;DHT22;27171;51.812;19.514;2022-09-24T05:55:09;9.30;99.90
41427;DHT22;27171;51.812;19.514;2022-09-24T05:58:12;9.30;99.90
41427;DHT22;27171;51.812;19.514;2022-09-24T06:01:13;9.40;99.90
41427;DHT22;27171;51.812;19.514;2022-09-24T06:04:14;9.40;99.90
41427;DHT22;27171;51.812;19.514;2022-09-24T06:07:15;9.50;99.90
41427;DHT22;27171;51.812;19.514;2022-09-24T06:10:16;9.50;99.90
41427;DHT22;27171;51.812;19.514;2022-09-24T06:13:18;9.60;99.90
41427;DHT22;27171;51.812;19.514;2022-09-24T06:16:19;9.60;99.90
41427;DHT22;27171;51.812;19.514;2022-09-24T06:19:20;9.70;99.90
41427;DHT22;27171;51.812;19.514;2022-09-24T06:22:21;9.70;99.90
41427;DHT22;27171;51.812;19.514;2022-09-24T06:25:25;9.80;99.90
41427;DHT22;27171;51.812;19.514;2022-09-24T06:28:26;9.80;99.90
41427;DHT22;27171;51.812;19.514;2022-09-24T06:31:27;9.90;99.90
41427;DHT22;27171;51.812;19.514;2022-09-24T06:34:28;9.90;99.90
41427;DHT22;27171;51.812;19.514;2022-09-24T06:37:30;10.00;99.90
41427;DHT22;27171;51.812;19.514;2022-09-24T06:40:31;10.10;99.90
41427;DHT22;27171;51.812;19.514;2022-09-24T06:43:33;10.20;99.90
41427;DHT22;27171;51.812;19.514;2022-09-24T06:46:34;10.20;99.90
41427;DHT22;27171;51.812;19.514;2022-09-24T06:49:36;10.30;99.90
41427;DHT22;27171;51.812;19.514;2022-09-24T06:52:37;10.40;99.90
41427;DHT22;27171;51.812;19.514;2022-09-24T06:55:38;10.40;99.90
41427;DHT22;27171;51.812;19.514;2022-09-24T06:58:39;10.50;99.90
41427;DHT22;27171;51.812;19.514;2022-09-24T07:01:40;10.60;99.90
41427;DHT22;27171;51.812;19.514;2022-09-24T07:04:41;10.60;99.90
41427;DHT22;27171;51.812;19.514;2022-09-24T07:07:42;10.70;99.90
41427;DHT22;27171;51.812;19.514;2022-09-24T07:10:45;10.80;99.90
41427;DHT22;27171;51.812;19.514;2022-09-24T07:13:46;10.80;99.90
41427;DHT22;27171;51.812;19.514;2022-09-24T07:16:47;10.90;99.90
41427;DHT22;27171;51.812;19.514;2022-09-24T07:19:48;11.00;99.90
41427;DHT22;27171;51.812;19.514;2022-09-24T07:22:49;11.00;99.90
41427;DHT22;27171;51.812;19.514;2022-09-24T07:25:53;11.00;99.90
41427;DHT22;27171;51.812;19.514;2022-09-24T07:28:55;11.10;99.90
41427;DHT22;27171;51.812;19.514;2022-09-24T07:31:56;11.20;99.90
41427;DHT22;27171;51.812;19.514;2022-09-24T07:34:57;11.30;99.90
41427;DHT22;27171;51.812;19.514;2022-09-24T07:38:00;11.40;99.90
41427;DHT22;27171;51.812;19.514;2022-09-24T07:41:02;11.50;99.90
41427;DHT22;27171;51.812;19.514;2022-09-24T07:44:03;11.60;99.90
41427;DHT22;27171;51.812;19.514;2022-09-24T07:47:04;11.70;99.90
41427;DHT22;27171;51.812;19.514;2022-09-24T07:50:05;11.90;99.90
41427;DHT22;27171;51.812;19.514;2022-09-24T07:53:11;12.00;99.90
41427;DHT22;27171;51.812;19.514;2022-09-24T07:56:16;12.20;99.90
41427;DHT22;27171;51.812;19.514;2022-09-24T07:59:17;12.30;99.90
41427;DHT22;27171;51.812;19.514;2022-09-24T08:02:19;12.50;99.90
41427;DHT22;27171;51.812;19.514;2022-09-24T08:05:20;12.50;99.90
41427;DHT22;27171;51.812;19.514;2022-09-24T08:08:21;12.70;99.90
41427;DHT22;27171;51.812;19.514;2022-09-24T08:11:22;12.80;99.90
41427;DHT22;27171;51.812;19.514;2022-09-24T08:14:23;12.90;99.90
41427;DHT22;27171;51.812;19.514;2022-09-24T08:17:24;13.00;99.90
41427;DHT22;27171;51.812;19.514;2022-09-24T08:20:25;13.10;99.90
41427;DHT22;27171;51.812;19.514;2022-09-24T08:23:26;13.20;99.90
41427;DHT22;27171;51.812;19.514;2022-09-24T08:26:27;13.30;99.90
41427;DHT22;27171;51.812;19.514;2022-09-24T08:29:29;13.30;99.90
41427;DHT22;27171;51.812;19.514;2022-09-24T08:32:30;13.40;99.90
41427;DHT22;27171;51.812;19.514;2022-09-24T08:35:32;13.50;99.90
41427;DHT22;27171;51.812;19.514;2022-09-24T08:38:33;13.60;99.90
41427;DHT22;27171;51.812;19.514;2022-09-24T08:41:54;13.60;99.90
41427;DHT22;27171;51.812;19.514;2022-09-24T08:44:57;13.60;99.90
41427;DHT22;27171;51.812;19.514;2022-09-24T08:48:18;13.70;99.90
41427;DHT22;27171;51.812;19.514;2022-09-24T08:51:21;13.80;99.90
41427;DHT22;27171;51.812;19.514;2022-09-24T08:54:24;13.80;99.90
41427;DHT22;27171;51.812;19.514;2022-09-24T08:57:27;13.90;99.90
41427;DHT22;27171;51.812;19.514;2022-09-24T09:00:31;14.00;99.90
41427;DHT22;27171;51.812;19.514;2022-09-24T09:04:01;14.10;99.90
41427;DHT22;27171;51.812;19.514;2022-09-24T09:10:25;14.40;99.90
41427;DHT22;27171;51.812;19.514;2022-09-24T09:13:35;14.50;99.90
41427;DHT22;27171;51.812;19.514;2022-09-24T09:17:00;14.50;99.90
41427;DHT22;27171;51.812;19.514;2022-09-24T09:20:10;14.60;99.90
41427;DHT22;27171;51.812;19.514;2022-09-24T09:26:18;14.70;99.90
41427;DHT22;27171;51.812;19.514;2022-09-24T09:29:23;14.80;99.90
41427;DHT22;27171;51.812;19.514;2022-09-24T09:35:54;14.90;99.90
41427;DHT22;27171;51.812;19.514;2022-09-24T09:42:40;15.00;99.90
41427;DHT22;27171;51.812;19.514;2022-09-24T09:51:04;15.40;99.90
41427;DHT22;27171;51.812;19.514;2022-09-24T09:54:06;15.50;99.90
41427;DHT22;27171;51.812;19.514;2022-09-24T09:57:19;15.60;99.90
41427;DHT22;27171;51.812;19.514;2022-09-24T10:00:26;15.70;99.90
41427;DHT22;27171;51.812;19.514;2022-09-24T10:03:33;15.80;99.90
41427;DHT22;27171;51.812;19.514;2022-09-24T10:06:36;15.90;99.90
41427;DHT22;27171;51.812;19.514;2022-09-24T10:09:38;15.90;99.90
41427;DHT22;27171;51.812;19.514;2022-09-24T10:12:39;16.00;99.90
41427;DHT22;27171;51.812;19.514;2022-09-24T10:15:52;16.00;99.90
41427;DHT22;27171;51.812;19.514;2022-09-24T10:18:54;16.10;99.70
41427;DHT22;27171;51.812;19.514;2022-09-24T10:21:55;16.20;99.60
41427;DHT22;27171;51.812;19.514;2022-09-24T10:24:59;16.20;99.40
41427;DHT22;27171;51.812;19.514;2022-09-24T10:28:04;16.30;98.90
41427;DHT22;27171;51.812;19.514;2022-09-24T10:31:12;16.40;98.90
41427;DHT22;27171;51.812;19.514;2022-09-24T10:34:24;16.60;98.80
41427;DHT22;27171;51.812;19.514;2022-09-24T10:37:26;16.70;98.30
41427;DHT22;27171;51.812;19.514;2022-09-24T10:40:46;16.70;98.30
41427;DHT22;27171;51.812;19.514;2022-09-24T10:43:51;16.90;97.70
41427;DHT22;27171;51.812;19.514;2022-09-24T10:50:38;16.80;97.50
41427;DHT22;27171;51.812;19.514;2022-09-24T10:53:53;16.80;97.00
41427;DHT22;27171;51.812;19.514;2022-09-24T10:56:59;16.90;97.40
41427;DHT22;27171;51.812;19.514;2022-09-24T11:00:17;16.90;97.00
41427;DHT22;27171;51.812;19.514;2022-09-24T11:03:28;16.80;96.70
41427;DHT22;27171;51.812;19.514;2022-09-24T11:23:49;17.20;95.30
41427;DHT22;27171;51.812;19.514;2022-09-24T11:30:18;17.10;94.70
41427;DHT22;27171;51.812;19.514;2022-09-24T11:36:56;17.00;95.40
41427;DHT22;27171;51.812;19.514;2022-09-24T11:43:09;16.90;95.50
41427;DHT22;27171;51.812;19.514;2022-09-24T11:49:58;16.80;95.50
41427;DHT22;27171;51.812;19.514;2022-09-24T11:53:13;16.70;95.40
41427;DHT22;27171;51.812;19.514;2022-09-24T12:00:01;16.60;95.00
41427;DHT22;27171;51.812;19.514;2022-09-24T12:06:49;16.40;94.80
41427;DHT22;27171;51.812;19.514;2022-09-24T12:13:51;16.30;94.50
41427;DHT22;27171;51.812;19.514;2022-09-24T12:16:58;16.30;94.30
41427;DHT22;27171;51.812;19.514;2022-09-24T12:20:20;16.30;94.00
41427;DHT22;27171;51.812;19.514;2022-09-24T12:23:28;16.30;94.10
41427;DHT22;27171;51.812;19.514;2022-09-24T12:26:36;16.30;94.30
41427;DHT22;27171;51.812;19.514;2022-09-24T12:36:12;16.40;94.80
41427;DHT22;27171;51.812;19.514;2022-09-24T12:39:18;16.50;93.80
41427;DHT22;27171;51.812;19.514;2022-09-24T12:42:21;16.60;93.50
41427;DHT22;27171;51.812;19.514;2022-09-24T12:45:24;16.70;93.50
41427;DHT22;27171;51.812;19.514;2022-09-24T12:48:26;16.80;93.40
41427;DHT22;27171;51.812;19.514;2022-09-24T12:51:35;16.90;93.20
41427;DHT22;27171;51.812;19.514;2022-09-24T12:54:38;17.00;92.60
41427;DHT22;27171;51.812;19.514;2022-09-24T12:57:41;17.10;92.90
41427;DHT22;27171;51.812;19.514;2022-09-24T13:00:49;17.10;92.60
41427;DHT22;27171;51.812;19.514;2022-09-24T13:07:38;17.10;91.60
41427;DHT22;27171;51.812;19.514;2022-09-24T13:10:40;17.10;91.70
41427;DHT22;27171;51.812;19.514;2022-09-24T13:13:42;17.10;92.20
41427;DHT22;27171;51.812;19.514;2022-09-24T13:16:47;17.10;92.40
41427;DHT22;27171;51.812;19.514;2022-09-24T13:19:56;17.20;92.50
41427;DHT22;27171;51.812;19.514;2022-09-24T13:23:27;17.20;92.50
41427;DHT22;27171;51.812;19.514;2022-09-24T13:26:30;17.10;91.80
41427;DHT22;27171;51.812;19.514;2022-09-24T13:29:37;17.20;91.20
41427;DHT22;27171;51.812;19.514;2022-09-24T13:32:50;17.10;92.10
41427;DHT22;27171;51.812;19.514;2022-09-24T13:36:01;17.10;91.70
41427;DHT22;27171;51.812;19.514;2022-09-24T13:45:18;16.90;92.30
41427;DHT22;27171;51.812;19.514;2022-09-24T13:48:59;16.80;92.10
41427;DHT22;27171;51.812;19.514;2022-09-24T13:52:31;16.70;91.40
41427;DHT22;27171;51.812;19.514;2022-09-24T13:55:43;16.50;92.30
41427;DHT22;27171;51.812;19.514;2022-09-24T13:58:46;16.50;93.00
41427;DHT22;27171;51.812;19.514;2022-09-24T14:01:47;16.50;93.50
41427;DHT22;27171;51.812;19.514;2022-09-24T14:04:56;16.40;94.10
41427;DHT22;27171;51.812;19.514;2022-09-24T14:08:18;16.30;94.70
41427;DHT22;27171;51.812;19.514;2022-09-24T14:11:22;16.30;95.00
41427;DHT22;27171;51.812;19.514;2022-09-24T14:14:26;16.20;95.60
41427;DHT22;27171;51.812;19.514;2022-09-24T14:17:27;16.10;95.10
41427;DHT22;27171;51.812;19.514;2022-09-24T14:20:32;16.10;95.30
41427;DHT22;27171;51.812;19.514;2022-09-24T14:23:57;16.10;95.80
41427;DHT22;27171;51.812;19.514;2022-09-24T14:27:03;16.10;95.70
41427;DHT22;27171;51.812;19.514;2022-09-24T14:30:16;16.10;95.70
41427;DHT22;27171;51.812;19.514;2022-09-24T14:33:21;16.10;95.90
41427;DHT22;27171;51.812;19.514;2022-09-24T14:36:23;16.10;96.30
41427;DHT22;27171;51.812;19.514;2022-09-24T14:39:26;16.10;96.50
41427;DHT22;27171;51.812;19.514;2022-09-24T14:45:36;16.00;96.50
41427;DHT22;27171;51.812;19.514;2022-09-24T14:48:38;16.00;96.80
41427;DHT22;27171;51.812;19.514;2022-09-24T14:51:50;16.00;97.10
41427;DHT22;27171;51.812;19.514;2022-09-24T14:55:01;15.90;96.80
41427;DHT22;27171;51.812;19.514;2022-09-24T14:58:02;15.90;97.30
41427;DHT22;27171;51.812;19.514;2022-09-24T15:01:24;15.90;97.40
41427;DHT22;27171;51.812;19.514;2022-09-24T15:04:29;15.80;97.00
41427;DHT22;27171;51.812;19.514;2022-09-24T15:07:32;15.80;97.10
41427;DHT22;27171;51.812;19.514;2022-09-24T15:10:33;15.80;97.20
41427;DHT22;27171;51.812;19.514;2022-09-24T15:13:36;15.70;97.80
41427;DHT22;27171;51.812;19.514;2022-09-24T15:16:37;15.70;98.00
41427;DHT22;27171;51.812;19.514;2022-09-24T15:19:38;15.60;97.80
41427;DHT22;27171;51.812;19.514;2022-09-24T15:22:39;15.60;97.80
41427;DHT22;27171;51.812;19.514;2022-09-24T15:25:41;15.50;97.80
41427;DHT22;27171;51.812;19.514;2022-09-24T15:28:42;15.40;97.80
41427;DHT22;27171;51.812;19.514;2022-09-24T15:31:43;15.40;98.10
41427;DHT22;27171;51.812;19.514;2022-09-24T15:34:44;15.30;98.10
41427;DHT22;27171;51.812;19.514;2022-09-24T15:37:45;15.30;98.30
41427;DHT22;27171;51.812;19.514;2022-09-24T15:40:47;15.30;98.60
41427;DHT22;27171;51.812;19.514;2022-09-24T15:43:48;15.20;98.50
41427;DHT22;27171;51.812;19.514;2022-09-24T15:46:50;15.20;98.70
41427;DHT22;27171;51.812;19.514;2022-09-24T15:49:51;15.20;98.80
41427;DHT22;27171;51.812;19.514;2022-09-24T15:52:55;15.20;98.70
41427;DHT22;27171;51.812;19.514;2022-09-24T15:56:00;15.20;98.70
41427;DHT22;27171;51.812;19.514;2022-09-24T15:59:04;15.20;98.90
41427;DHT22;27171;51.812;19.514;2022-09-24T16:02:19;15.10;99.10
41427;DHT22;27171;51.812;19.514;2022-09-24T16:05:22;15.10;99.50
41427;DHT22;27171;51.812;19.514;2022-09-24T16:08:23;15.00;99.70
41427;DHT22;27171;51.812;19.514;2022-09-24T16:11:25;14.90;99.80
41427;DHT22;27171;51.812;19.514;2022-09-24T16:14:26;14.80;99.90
41427;DHT22;27171;51.812;19.514;2022-09-24T16:17:28;14.70;99.90
41427;DHT22;27171;51.812;19.514;2022-09-24T16:20:30;14.60;99.90
41427;DHT22;27171;51.812;19.514;2022-09-24T16:23:31;14.40;99.90
41427;DHT22;27171;51.812;19.514;2022-09-24T16:26:32;14.30;99.90
41427;DHT22;27171;51.812;19.514;2022-09-24T16:29:34;14.20;99.90
41427;DHT22;27171;51.812;19.514;2022-09-24T16:32:35;14.10;99.90
41427;DHT22;27171;51.812;19.514;2022-09-24T16:35:36;14.00;99.90
41427;DHT22;27171;51.812;19.514;2022-09-24T16:38:40;13.90;99.90
41427;DHT22;27171;51.812;19.514;2022-09-24T16:41:47;13.80;99.90
41427;DHT22;27171;51.812;19.514;2022-09-24T16:44:48;13.70;99.90
41427;DHT22;27171;51.812;19.514;2022-09-24T16:47:49;13.60;99.90
41427;DHT22;27171;51.812;19.514;2022-09-24T16:50:50;13.50;99.90
41427;DHT22;27171;51.812;19.514;2022-09-24T16:53:55;13.40;99.90
41427;DHT22;27171;51.812;19.514;2022-09-24T16:56:56;13.30;99.90
41427;DHT22;27171;51.812;19.514;2022-09-24T16:59:57;13.20;99.90
41427;DHT22;27171;51.812;19.514;2022-09-24T17:02:58;13.10;99.90
41427;DHT22;27171;51.812;19.514;2022-09-24T17:06:00;13.00;99.90
41427;DHT22;27171;51.812;19.514;2022-09-24T17:09:05;13.00;99.90
41427;DHT22;27171;51.812;19.514;2022-09-24T17:12:06;12.80;99.90
41427;DHT22;27171;51.812;19.514;2022-09-24T17:15:08;12.70;99.90
41427;DHT22;27171;51.812;19.514;2022-09-24T17:18:09;12.60;99.90
41427;DHT22;27171;51.812;19.514;2022-09-24T17:21:11;12.50;99.90
41427;DHT22;27171;51.812;19.514;2022-09-24T17:24:13;12.40;99.90
41427;DHT22;27171;51.812;19.514;2022-09-24T17:27:14;12.30;99.90
41427;DHT22;27171;51.812;19.514;2022-09-24T17:30:15;12.20;99.90
41427;DHT22;27171;51.812;19.514;2022-09-24T17:33:16;12.10;99.90
41427;DHT22;27171;51.812;19.514;2022-09-24T17:36:17;12.00;99.90
41427;DHT22;27171;51.812;19.514;2022-09-24T17:39:18;11.90;99.90
41427;DHT22;27171;51.812;19.514;2022-09-24T17:42:20;11.80;99.90
41427;DHT22;27171;51.812;19.514;2022-09-24T17:45:21;11.70;99.90
41427;DHT22;27171;51.812;19.514;2022-09-24T17:48:24;11.60;99.90
41427;DHT22;27171;51.812;19.514;2022-09-24T17:51:30;11.50;99.90
41427;DHT22;27171;51.812;19.514;2022-09-24T17:54:32;11.40;99.90
41427;DHT22;27171;51.812;19.514;2022-09-24T17:57:33;11.30;99.90
41427;DHT22;27171;51.812;19.514;2022-09-24T18:00:34;11.20;99.90
41427;DHT22;27171;51.812;19.514;2022-09-24T18:03:36;11.10;99.90
41427;DHT22;27171;51.812;19.514;2022-09-24T18:06:38;11.00;99.90
41427;DHT22;27171;51.812;19.514;2022-09-24T18:09:40;11.00;99.90
41427;DHT22;27171;51.812;19.514;2022-09-24T18:12:40;11.00;99.90
41427;DHT22;27171;51.812;19.514;2022-09-24T18:15:42;10.90;99.90
41427;DHT22;27171;51.812;19.514;2022-09-24T18:18:43;10.80;99.90
41427;DHT22;27171;51.812;19.514;2022-09-24T18:21:45;10.70;99.90
41427;DHT22;27171;51.812;19.514;2022-09-24T18:24:46;10.60;99.90
41427;DHT22;27171;51.812;19.514;2022-09-24T18:27:47;10.60;99.90
41427;DHT22;27171;51.812;19.514;2022-09-24T18:30:48;10.50;99.90
41427;DHT22;27171;51.812;19.514;2022-09-24T18:33:51;10.50;99.90
41427;DHT22;27171;51.812;19.514;2022-09-24T18:36:52;10.40;99.90
41427;DHT22;27171;51.812;19.514;2022-09-24T18:39:54;10.30;99.90
41427;DHT22;27171;51.812;19.514;2022-09-24T18:42:55;10.30;99.90
41427;DHT22;27171;51.812;19.514;2022-09-24T18:46:02;10.20;99.90
41427;DHT22;27171;51.812;19.514;2022-09-24T18:49:03;10.10;99.90
41427;DHT22;27171;51.812;19.514;2022-09-24T18:52:04;10.10;99.90
41427;DHT22;27171;51.812;19.514;2022-09-24T18:55:06;10.00;99.90
41427;DHT22;27171;51.812;19.514;2022-09-24T18:58:09;9.90;99.90
41427;DHT22;27171;51.812;19.514;2022-09-24T19:01:10;9.90;99.90
41427;DHT22;27171;51.812;19.514;2022-09-24T19:04:12;9.80;99.90
41427;DHT22;27171;51.812;19.514;2022-09-24T19:07:13;9.80;99.90
41427;DHT22;27171;51.812;19.514;2022-09-24T19:10:14;9.70;99.90
41427;DHT22;27171;51.812;19.514;2022-09-24T19:13:16;9.70;99.90
41427;DHT22;27171;51.812;19.514;2022-09-24T19:16:19;9.70;99.90
41427;DHT22;27171;51.812;19.514;2022-09-24T19:19:22;9.60;99.90
41427;DHT22;27171;51.812;19.514;2022-09-24T19:22:23;9.60;99.90
41427;DHT22;27171;51.812;19.514;2022-09-24T19:25:31;9.60;99.90
41427;DHT22;27171;51.812;19.514;2022-09-24T19:28:33;9.50;99.90
41427;DHT22;27171;51.812;19.514;2022-09-24T19:31:37;9.50;99.90
41427;DHT22;27171;51.812;19.514;2022-09-24T19:34:39;9.50;99.90
41427;DHT22;27171;51.812;19.514;2022-09-24T19:37:40;9.50;99.90
41427;DHT22;27171;51.812;19.514;2022-09-24T19:40:41;9.40;99.90
41427;DHT22;27171;51.812;19.514;2022-09-24T19:43:43;9.40;99.90
41427;DHT22;27171;51.812;19.514;2022-09-24T19:46:44;9.40;99.90
41427;DHT22;27171;51.812;19.514;2022-09-24T19:49:45;9.30;99.90
41427;DHT22;27171;51.812;19.514;2022-09-24T19:52:46;9.30;99.90
41427;DHT22;27171;51.812;19.514;2022-09-24T19:55:47;9.30;99.90
41427;DHT22;27171;51.812;19.514;2022-09-24T19:58:49;9.30;99.90
41427;DHT22;27171;51.812;19.514;2022-09-24T20:01:50;9.30;99.90
41427;DHT22;27171;51.812;19.514;2022-09-24T20:04:51;9.30;99.90
41427;DHT22;27171;51.812;19.514;2022-09-24T20:07:52;9.30;99.90
41427;DHT22;27171;51.812;19.514;2022-09-24T20:10:53;9.20;99.90
41427;DHT22;27171;51.812;19.514;2022-09-24T20:13:54;9.20;99.90
41427;DHT22;27171;51.812;19.514;2022-09-24T20:16:55;9.10;99.90
41427;DHT22;27171;51.812;19.514;2022-09-24T20:19:56;9.10;99.90
41427;DHT22;27171;51.812;19.514;2022-09-24T20:22:58;9.10;99.90
41427;DHT22;27171;51.812;19.514;2022-09-24T20:25:59;9.10;99.90
41427;DHT22;27171;51.812;19.514;2022-09-24T20:29:00;9.00;99.90
41427;DHT22;27171;51.812;19.514;2022-09-24T20:32:01;9.00;99.90
41427;DHT22;27171;51.812;19.514;2022-09-24T20:35:03;9.00;99.90
41427;DHT22;27171;51.812;19.514;2022-09-24T20:38:06;9.00;99.90
41427;DHT22;27171;51.812;19.514;2022-09-24T20:41:10;8.90;99.90
41427;DHT22;27171;51.812;19.514;2022-09-24T20:44:12;8.90;99.90
41427;DHT22;27171;51.812;19.514;2022-09-24T20:47:14;8.90;99.90
41427;DHT22;27171;51.812;19.514;2022-09-24T20:50:16;8.90;99.90